sensor_id;sensor_type;location;lat;lon;timestamp;P1;durP1;ratioP1;P2;durP2;ratioP2
21941;SDS011;11135;54.192;15.670;2023-12-14T00:00:18;9.18;;;4.78;;
21941;SDS011;11135;54.192;15.670;2023-12-14T00:04:04;8.85;;;5.15;;
21941;SDS011;11135;54.192;15.670;2023-12-14T00:07:30;13.10;;;6.10;;
21941;SDS011;11135;54.192;15.670;2023-12-14T00:10:56;30.23;;;13.70;;
21941;SDS011;11135;54.192;15.670;2023-12-14T00:14:22;14.27;;;7.00;;
21941;SDS011;11135;54.192;15.670;2023-12-14T00:17:51;9.30;;;5.35;;
21941;SDS011;11135;54.192;15.670;2023-12-14T00:21:16;11.50;;;6.25;;
21941;SDS011;11135;54.192;15.670;2023-12-14T00:24:42;9.45;;;5.00;;
21941;SDS011;11135;54.192;15.670;2023-12-14T00:28:08;10.65;;;5.50;;
21941;SDS011;11135;54.192;15.670;2023-12-14T00:31:33;11.07;;;6.20;;
21941;SDS011;11135;54.192;15.670;2023-12-14T00:35:03;10.30;;;5.28;;
21941;SDS011;11135;54.192;15.670;2023-12-14T00:38:28;10.18;;;5.93;;
21941;SDS011;11135;54.192;15.670;2023-12-14T00:41:55;11.13;;;5.88;;
21941;SDS011;11135;54.192;15.670;2023-12-14T00:45:20;10.05;;;6.10;;
21941;SDS011;11135;54.192;15.670;2023-12-14T00:48:48;13.60;;;6.30;;
21941;SDS011;11135;54.192;15.670;2023-12-14T00:52:17;10.40;;;6.30;;
21941;SDS011;11135;54.192;15.670;2023-12-14T00:55:43;12.43;;;6.10;;
21941;SDS011;11135;54.192;15.670;2023-12-14T00:59:09;11.05;;;6.35;;
21941;SDS011;11135;54.192;15.670;2023-12-14T01:02:35;11.93;;;7.18;;
21941;SDS011;11135;54.192;15.670;2023-12-14T01:06:01;11.60;;;6.50;;
21941;SDS011;11135;54.192;15.670;2023-12-14T01:09:30;12.10;;;6.10;;
21941;SDS011;11135;54.192;15.670;2023-12-14T01:12:56;13.23;;;6.63;;
21941;SDS011;11135;54.192;15.670;2023-12-14T01:16:21;13.38;;;7.00;;
21941;SDS011;11135;54.192;15.670;2023-12-14T01:19:51;9.95;;;5.90;;
21941;SDS011;11135;54.192;15.670;2023-12-14T01:23:16;8.95;;;5.82;;
21941;SDS011;11135;54.192;15.670;2023-12-14T01:26:45;10.52;;;6.05;;
21941;SDS011;11135;54.192;15.670;2023-12-14T01:30:11;12.32;;;6.78;;
21941;SDS011;11135;54.192;15.670;2023-12-14T01:33:37;11.73;;;6.38;;
21941;SDS011;11135;54.192;15.670;2023-12-14T01:37:02;10.43;;;5.85;;
21941;SDS011;11135;54.192;15.670;2023-12-14T01:40:29;11.25;;;6.00;;
21941;SDS011;11135;54.192;15.670;2023-12-14T01:43:58;9.57;;;5.97;;
21941;SDS011;11135;54.192;15.670;2023-12-14T01:47:24;11.07;;;5.72;;
21941;SDS011;11135;54.192;15.670;2023-12-14T01:50:49;13.30;;;5.47;;
21941;SDS011;11135;54.192;15.670;2023-12-14T01:54:15;8.43;;;5.05;;
21941;SDS011;11135;54.192;15.670;2023-12-14T01:57:40;10.70;;;5.25;;
21941;SDS011;11135;54.192;15.670;2023-12-14T02:01:11;10.00;;;4.80;;
21941;SDS011;11135;54.192;15.670;2023-12-14T02:04:38;10.60;;;4.90;;
21941;SDS011;11135;54.192;15.670;2023-12-14T02:08:04;8.65;;;5.55;;
21941;SDS011;11135;54.192;15.670;2023-12-14T02:11:31;9.90;;;4.82;;
21941;SDS011;11135;54.192;15.670;2023-12-14T02:14:57;9.65;;;4.40;;
21941;SDS011;11135;54.192;15.670;2023-12-14T02:18:25;11.20;;;4.85;;
21941;SDS011;11135;54.192;15.670;2023-12-14T02:21:51;8.63;;;5.15;;
21941;SDS011;11135;54.192;15.670;2023-12-14T02:25:20;8.85;;;4.75;;
21941;SDS011;11135;54.192;15.670;2023-12-14T02:28:46;7.05;;;4.30;;
21941;SDS011;11135;54.192;15.670;2023-12-14T02:32:12;8.63;;;4.32;;
21941;SDS011;11135;54.192;15.670;2023-12-14T02:35:38;7.88;;;4.30;;
21941;SDS011;11135;54.192;15.670;2023-12-14T02:39:03;9.43;;;3.60;;
21941;SDS011;11135;54.192;15.670;2023-12-14T02:42:32;6.65;;;3.38;;
21941;SDS011;11135;54.192;15.670;2023-12-14T02:45:58;8.82;;;3.45;;
21941;SDS011;11135;54.192;15.670;2023-12-14T02:49:25;6.00;;;3.35;;
21941;SDS011;11135;54.192;15.670;2023-12-14T02:52:51;7.15;;;3.42;;
21941;SDS011;11135;54.192;15.670;2023-12-14T02:56:17;7.68;;;4.05;;
21941;SDS011;11135;54.192;15.670;2023-12-14T02:59:48;6.50;;;2.83;;
21941;SDS011;11135;54.192;15.670;2023-12-14T03:03:15;6.07;;;3.17;;
21941;SDS011;11135;54.192;15.670;2023-12-14T03:06:40;5.25;;;2.58;;
21941;SDS011;11135;54.192;15.670;2023-12-14T03:10:07;6.45;;;3.53;;
21941;SDS011;11135;54.192;15.670;2023-12-14T03:13:33;6.82;;;3.45;;
21941;SDS011;11135;54.192;15.670;2023-12-14T03:17:02;4.00;;;2.58;;
21941;SDS011;11135;54.192;15.670;2023-12-14T03:20:27;6.80;;;3.13;;
21941;SDS011;11135;54.192;15.670;2023-12-14T03:23:53;8.38;;;3.45;;
21941;SDS011;11135;54.192;15.670;2023-12-14T03:27:19;6.38;;;3.67;;
21941;SDS011;11135;54.192;15.670;2023-12-14T03:30:47;3.90;;;2.25;;
21941;SDS011;11135;54.192;15.670;2023-12-14T03:34:16;7.00;;;3.35;;
21941;SDS011;11135;54.192;15.670;2023-12-14T03:37:42;7.88;;;3.25;;
21941;SDS011;11135;54.192;15.670;2023-12-14T03:41:08;5.90;;;3.08;;
21941;SDS011;11135;54.192;15.670;2023-12-14T03:44:34;6.75;;;3.67;;
21941;SDS011;11135;54.192;15.670;2023-12-14T03:47:59;5.45;;;3.42;;
21941;SDS011;11135;54.192;15.670;2023-12-14T03:51:28;6.85;;;3.42;;
21941;SDS011;11135;54.192;15.670;2023-12-14T03:54:54;6.88;;;3.85;;
21941;SDS011;11135;54.192;15.670;2023-12-14T03:58:19;7.18;;;4.00;;
21941;SDS011;11135;54.192;15.670;2023-12-14T04:01:45;7.68;;;3.85;;
21941;SDS011;11135;54.192;15.670;2023-12-14T04:05:11;7.20;;;3.72;;
21941;SDS011;11135;54.192;15.670;2023-12-14T04:08:40;5.10;;;2.88;;
21941;SDS011;11135;54.192;15.670;2023-12-14T04:12:06;5.82;;;2.95;;
21941;SDS011;11135;54.192;15.670;2023-12-14T04:15:32;4.82;;;2.97;;
21941;SDS011;11135;54.192;15.670;2023-12-14T04:19:01;6.45;;;3.35;;
21941;SDS011;11135;54.192;15.670;2023-12-14T04:22:33;6.53;;;3.53;;
21941;SDS011;11135;54.192;15.670;2023-12-14T04:26:02;6.05;;;2.80;;
21941;SDS011;11135;54.192;15.670;2023-12-14T04:29:28;5.85;;;3.20;;
21941;SDS011;11135;54.192;15.670;2023-12-14T04:32:54;6.20;;;3.20;;
21941;SDS011;11135;54.192;15.670;2023-12-14T04:36:19;7.18;;;2.90;;
21941;SDS011;11135;54.192;15.670;2023-12-14T04:39:46;6.53;;;3.70;;
21941;SDS011;11135;54.192;15.670;2023-12-14T04:43:15;7.00;;;3.60;;
21941;SDS011;11135;54.192;15.670;2023-12-14T04:46:41;8.20;;;3.45;;
21941;SDS011;11135;54.192;15.670;2023-12-14T04:50:08;6.70;;;3.00;;
21941;SDS011;11135;54.192;15.670;2023-12-14T04:53:34;5.43;;;2.72;;
21941;SDS011;11135;54.192;15.670;2023-12-14T04:57:00;6.75;;;3.22;;
21941;SDS011;11135;54.192;15.670;2023-12-14T05:00:29;4.72;;;2.60;;
21941;SDS011;11135;54.192;15.670;2023-12-14T05:03:54;6.18;;;3.75;;
21941;SDS011;11135;54.192;15.670;2023-12-14T05:07:20;7.97;;;3.40;;
21941;SDS011;11135;54.192;15.670;2023-12-14T05:10:46;7.47;;;3.67;;
21941;SDS011;11135;54.192;15.670;2023-12-14T05:14:12;8.15;;;3.63;;
21941;SDS011;11135;54.192;15.670;2023-12-14T05:17:40;7.53;;;3.92;;
21941;SDS011;11135;54.192;15.670;2023-12-14T05:21:06;8.00;;;3.70;;
21941;SDS011;11135;54.192;15.670;2023-12-14T05:24:32;6.82;;;4.10;;
21941;SDS011;11135;54.192;15.670;2023-12-14T05:28:02;8.10;;;4.50;;
21941;SDS011;11135;54.192;15.670;2023-12-14T05:31:28;6.57;;;3.80;;
21941;SDS011;11135;54.192;15.670;2023-12-14T05:34:57;7.70;;;4.43;;
21941;SDS011;11135;54.192;15.670;2023-12-14T05:38:25;8.90;;;4.25;;
21941;SDS011;11135;54.192;15.670;2023-12-14T05:41:52;18.20;;;10.57;;
21941;SDS011;11135;54.192;15.670;2023-12-14T05:45:18;14.02;;;6.07;;
21941;SDS011;11135;54.192;15.670;2023-12-14T05:48:44;14.30;;;5.85;;
21941;SDS011;11135;54.192;15.670;2023-12-14T05:52:12;9.50;;;4.68;;
21941;SDS011;11135;54.192;15.670;2023-12-14T05:55:39;11.60;;;4.00;;
21941;SDS011;11135;54.192;15.670;2023-12-14T05:59:05;5.35;;;3.22;;
21941;SDS011;11135;54.192;15.670;2023-12-14T06:02:31;5.60;;;2.92;;
21941;SDS011;11135;54.192;15.670;2023-12-14T06:05:59;7.57;;;3.72;;
21941;SDS011;11135;54.192;15.670;2023-12-14T06:09:28;5.90;;;3.55;;
21941;SDS011;11135;54.192;15.670;2023-12-14T06:12:56;8.50;;;3.70;;
21941;SDS011;11135;54.192;15.670;2023-12-14T06:16:25;5.47;;;3.00;;
21941;SDS011;11135;54.192;15.670;2023-12-14T06:19:50;6.10;;;2.95;;
21941;SDS011;11135;54.192;15.670;2023-12-14T06:23:18;6.75;;;3.03;;
21941;SDS011;11135;54.192;15.670;2023-12-14T06:26:47;5.10;;;2.67;;
21941;SDS011;11135;54.192;15.670;2023-12-14T06:30:13;6.03;;;3.25;;
21941;SDS011;11135;54.192;15.670;2023-12-14T06:33:41;5.70;;;2.75;;
21941;SDS011;11135;54.192;15.670;2023-12-14T06:37:10;5.18;;;2.90;;
21941;SDS011;11135;54.192;15.670;2023-12-14T06:40:39;7.97;;;2.90;;
21941;SDS011;11135;54.192;15.670;2023-12-14T06:44:08;7.57;;;3.55;;
21941;SDS011;11135;54.192;15.670;2023-12-14T06:47:35;8.82;;;4.30;;
21941;SDS011;11135;54.192;15.670;2023-12-14T06:51:03;7.05;;;3.35;;
21941;SDS011;11135;54.192;15.670;2023-12-14T06:54:29;9.32;;;4.28;;
21941;SDS011;11135;54.192;15.670;2023-12-14T06:57:55;5.05;;;3.28;;
21941;SDS011;11135;54.192;15.670;2023-12-14T07:01:24;7.07;;;3.05;;
21941;SDS011;11135;54.192;15.670;2023-12-14T07:04:50;8.18;;;3.95;;
21941;SDS011;11135;54.192;15.670;2023-12-14T07:08:18;6.13;;;3.20;;
21941;SDS011;11135;54.192;15.670;2023-12-14T07:11:48;7.15;;;3.00;;
21941;SDS011;11135;54.192;15.670;2023-12-14T07:15:16;6.95;;;3.33;;
21941;SDS011;11135;54.192;15.670;2023-12-14T07:18:44;8.50;;;3.58;;
21941;SDS011;11135;54.192;15.670;2023-12-14T07:22:12;6.45;;;3.63;;
21941;SDS011;11135;54.192;15.670;2023-12-14T07:25:37;7.75;;;4.03;;
21941;SDS011;11135;54.192;15.670;2023-12-14T07:29:05;6.22;;;3.30;;
21941;SDS011;11135;54.192;15.670;2023-12-14T07:32:30;7.18;;;3.42;;
21941;SDS011;11135;54.192;15.670;2023-12-14T07:36:01;6.72;;;3.38;;
21941;SDS011;11135;54.192;15.670;2023-12-14T07:39:28;11.80;;;5.90;;
21941;SDS011;11135;54.192;15.670;2023-12-14T07:42:54;16.85;;;8.70;;
21941;SDS011;11135;54.192;15.670;2023-12-14T07:46:20;14.35;;;7.82;;
21941;SDS011;11135;54.192;15.670;2023-12-14T07:49:46;10.18;;;6.57;;
21941;SDS011;11135;54.192;15.670;2023-12-14T07:53:14;11.73;;;6.88;;
21941;SDS011;11135;54.192;15.670;2023-12-14T07:56:41;11.65;;;6.38;;
21941;SDS011;11135;54.192;15.670;2023-12-14T08:00:08;8.38;;;5.38;;
21941;SDS011;11135;54.192;15.670;2023-12-14T08:03:34;7.90;;;5.10;;
21941;SDS011;11135;54.192;15.670;2023-12-14T08:07:00;9.40;;;4.97;;
21941;SDS011;11135;54.192;15.670;2023-12-14T08:10:29;9.10;;;5.22;;
21941;SDS011;11135;54.192;15.670;2023-12-14T08:13:55;9.65;;;5.05;;
21941;SDS011;11135;54.192;15.670;2023-12-14T08:17:23;9.95;;;5.10;;
21941;SDS011;11135;54.192;15.670;2023-12-14T08:20:50;10.30;;;6.00;;
21941;SDS011;11135;54.192;15.670;2023-12-14T08:24:20;12.95;;;6.88;;
21941;SDS011;11135;54.192;15.670;2023-12-14T08:27:51;11.68;;;5.00;;
21941;SDS011;11135;54.192;15.670;2023-12-14T08:31:17;6.55;;;3.97;;
21941;SDS011;11135;54.192;15.670;2023-12-14T08:34:44;8.15;;;3.80;;
21941;SDS011;11135;54.192;15.670;2023-12-14T08:38:11;8.68;;;5.10;;
21941;SDS011;11135;54.192;15.670;2023-12-14T08:41:36;8.65;;;5.40;;
21941;SDS011;11135;54.192;15.670;2023-12-14T08:45:07;8.18;;;4.43;;
21941;SDS011;11135;54.192;15.670;2023-12-14T08:48:35;6.75;;;3.45;;
21941;SDS011;11135;54.192;15.670;2023-12-14T08:52:01;7.40;;;4.00;;
21941;SDS011;11135;54.192;15.670;2023-12-14T08:55:27;7.13;;;3.53;;
21941;SDS011;11135;54.192;15.670;2023-12-14T08:58:54;6.80;;;3.72;;
21941;SDS011;11135;54.192;15.670;2023-12-14T09:02:24;6.72;;;3.50;;
21941;SDS011;11135;54.192;15.670;2023-12-14T09:05:50;6.30;;;3.00;;
21941;SDS011;11135;54.192;15.670;2023-12-14T09:09:16;5.30;;;3.05;;
21941;SDS011;11135;54.192;15.670;2023-12-14T09:12:42;6.28;;;3.80;;
21941;SDS011;11135;54.192;15.670;2023-12-14T09:16:08;8.82;;;3.97;;
21941;SDS011;11135;54.192;15.670;2023-12-14T09:19:37;6.40;;;3.70;;
21941;SDS011;11135;54.192;15.670;2023-12-14T09:23:03;10.27;;;5.93;;
21941;SDS011;11135;54.192;15.670;2023-12-14T09:26:29;14.70;;;8.23;;
21941;SDS011;11135;54.192;15.670;2023-12-14T09:29:56;18.73;;;12.20;;
21941;SDS011;11135;54.192;15.670;2023-12-14T09:33:25;10.40;;;6.50;;
21941;SDS011;11135;54.192;15.670;2023-12-14T09:36:53;8.30;;;5.72;;
21941;SDS011;11135;54.192;15.670;2023-12-14T09:40:21;5.97;;;4.10;;
21941;SDS011;11135;54.192;15.670;2023-12-14T09:43:46;6.72;;;4.40;;
21941;SDS011;11135;54.192;15.670;2023-12-14T09:47:13;5.65;;;3.90;;
21941;SDS011;11135;54.192;15.670;2023-12-14T09:50:38;7.72;;;4.75;;
21941;SDS011;11135;54.192;15.670;2023-12-14T09:54:07;6.40;;;4.50;;
21941;SDS011;11135;54.192;15.670;2023-12-14T09:57:34;9.10;;;5.65;;
21941;SDS011;11135;54.192;15.670;2023-12-14T10:01:00;8.43;;;5.50;;
21941;SDS011;11135;54.192;15.670;2023-12-14T10:04:26;13.50;;;7.22;;
21941;SDS011;11135;54.192;15.670;2023-12-14T10:07:52;25.73;;;12.38;;
21941;SDS011;11135;54.192;15.670;2023-12-14T10:11:21;22.73;;;10.02;;
21941;SDS011;11135;54.192;15.670;2023-12-14T10:14:47;17.27;;;7.80;;
21941;SDS011;11135;54.192;15.670;2023-12-14T10:18:13;10.20;;;5.30;;
21941;SDS011;11135;54.192;15.670;2023-12-14T10:21:43;12.32;;;6.97;;
21941;SDS011;11135;54.192;15.670;2023-12-14T10:25:09;18.67;;;10.32;;
21941;SDS011;11135;54.192;15.670;2023-12-14T10:28:38;25.10;;;13.95;;
21941;SDS011;11135;54.192;15.670;2023-12-14T10:32:07;16.90;;;8.40;;
21941;SDS011;11135;54.192;15.670;2023-12-14T10:35:34;16.20;;;9.85;;
21941;SDS011;11135;54.192;15.670;2023-12-14T10:39:00;16.40;;;8.13;;
21941;SDS011;11135;54.192;15.670;2023-12-14T10:42:28;21.35;;;10.02;;
21941;SDS011;11135;54.192;15.670;2023-12-14T10:45:59;26.75;;;13.65;;
21941;SDS011;11135;54.192;15.670;2023-12-14T10:49:28;41.28;;;27.05;;
21941;SDS011;11135;54.192;15.670;2023-12-14T10:52:54;17.60;;;11.80;;
21941;SDS011;11135;54.192;15.670;2023-12-14T10:56:21;10.30;;;7.55;;
21941;SDS011;11135;54.192;15.670;2023-12-14T10:59:55;6.40;;;3.80;;
21941;SDS011;11135;54.192;15.670;2023-12-14T11:03:26;3.67;;;1.70;;
21941;SDS011;11135;54.192;15.670;2023-12-14T11:06:54;3.70;;;2.17;;
21941;SDS011;11135;54.192;15.670;2023-12-14T11:10:20;5.07;;;2.20;;
21941;SDS011;11135;54.192;15.670;2023-12-14T11:13:50;5.80;;;2.60;;
21941;SDS011;11135;54.192;15.670;2023-12-14T11:17:16;7.65;;;2.67;;
21941;SDS011;11135;54.192;15.670;2023-12-14T11:20:50;5.53;;;2.60;;
21941;SDS011;11135;54.192;15.670;2023-12-14T11:24:16;6.93;;;2.60;;
21941;SDS011;11135;54.192;15.670;2023-12-14T11:27:42;5.50;;;2.70;;
21941;SDS011;11135;54.192;15.670;2023-12-14T11:31:09;7.65;;;3.55;;
21941;SDS011;11135;54.192;15.670;2023-12-14T11:34:38;13.38;;;6.53;;
21941;SDS011;11135;54.192;15.670;2023-12-14T11:38:08;28.35;;;17.88;;
21941;SDS011;11135;54.192;15.670;2023-12-14T11:41:40;7.15;;;4.07;;
21941;SDS011;11135;54.192;15.670;2023-12-14T11:45:06;2.67;;;1.63;;
21941;SDS011;11135;54.192;15.670;2023-12-14T11:48:34;3.28;;;1.33;;
21941;SDS011;11135;54.192;15.670;2023-12-14T11:52:03;2.63;;;1.15;;
21941;SDS011;11135;54.192;15.670;2023-12-14T11:55:33;1.95;;;1.08;;
21941;SDS011;11135;54.192;15.670;2023-12-14T11:59:00;1.35;;;1.10;;
21941;SDS011;11135;54.192;15.670;2023-12-14T12:02:26;2.35;;;1.40;;
21941;SDS011;11135;54.192;15.670;2023-12-14T12:05:53;10.57;;;6.50;;
21941;SDS011;11135;54.192;15.670;2023-12-14T12:13:04;12.57;;;9.38;;
21941;SDS011;11135;54.192;15.670;2023-12-14T12:16:30;10.63;;;5.57;;
21941;SDS011;11135;54.192;15.670;2023-12-14T12:19:58;15.80;;;9.90;;
21941;SDS011;11135;54.192;15.670;2023-12-14T12:23:32;15.48;;;9.95;;
21941;SDS011;11135;54.192;15.670;2023-12-14T12:26:58;4.78;;;3.15;;
21941;SDS011;11135;54.192;15.670;2023-12-14T12:30:27;2.35;;;1.30;;
21941;SDS011;11135;54.192;15.670;2023-12-14T12:33:54;14.75;;;6.50;;
21941;SDS011;11135;54.192;15.670;2023-12-14T12:37:19;3.38;;;1.40;;
21941;SDS011;11135;54.192;15.670;2023-12-14T12:40:45;4.50;;;1.40;;
21941;SDS011;11135;54.192;15.670;2023-12-14T12:44:11;2.40;;;1.58;;
21941;SDS011;11135;54.192;15.670;2023-12-14T12:47:43;2.13;;;1.30;;
21941;SDS011;11135;54.192;15.670;2023-12-14T12:51:09;2.15;;;1.30;;
21941;SDS011;11135;54.192;15.670;2023-12-14T12:54:35;2.47;;;1.00;;
21941;SDS011;11135;54.192;15.670;2023-12-14T12:58:02;3.38;;;1.10;;
21941;SDS011;11135;54.192;15.670;2023-12-14T13:01:31;2.47;;;1.35;;
21941;SDS011;11135;54.192;15.670;2023-12-14T13:05:00;2.72;;;1.20;;
21941;SDS011;11135;54.192;15.670;2023-12-14T13:08:27;2.88;;;1.30;;
21941;SDS011;11135;54.192;15.670;2023-12-14T13:11:55;2.92;;;1.20;;
21941;SDS011;11135;54.192;15.670;2023-12-14T13:15:23;2.83;;;1.40;;
21941;SDS011;11135;54.192;15.670;2023-12-14T13:18:53;1.58;;;1.33;;
21941;SDS011;11135;54.192;15.670;2023-12-14T13:22:22;2.13;;;1.00;;
21941;SDS011;11135;54.192;15.670;2023-12-14T13:25:52;2.50;;;1.05;;
21941;SDS011;11135;54.192;15.670;2023-12-14T13:29:19;1.92;;;1.20;;
21941;SDS011;11135;54.192;15.670;2023-12-14T13:32:45;1.60;;;1.00;;
21941;SDS011;11135;54.192;15.670;2023-12-14T13:36:11;4.38;;;1.00;;
21941;SDS011;11135;54.192;15.670;2023-12-14T13:39:44;2.58;;;0.88;;
21941;SDS011;11135;54.192;15.670;2023-12-14T13:43:11;2.10;;;1.33;;
21941;SDS011;11135;54.192;15.670;2023-12-14T13:46:37;2.55;;;1.50;;
21941;SDS011;11135;54.192;15.670;2023-12-14T13:50:06;3.70;;;1.20;;
21941;SDS011;11135;54.192;15.670;2023-12-14T13:53:32;3.90;;;1.55;;
21941;SDS011;11135;54.192;15.670;2023-12-14T13:57:01;3.85;;;1.85;;
21941;SDS011;11135;54.192;15.670;2023-12-14T14:00:26;4.03;;;1.50;;
21941;SDS011;11135;54.192;15.670;2023-12-14T14:03:53;3.60;;;1.40;;
21941;SDS011;11135;54.192;15.670;2023-12-14T14:07:19;4.30;;;1.45;;
21941;SDS011;11135;54.192;15.670;2023-12-14T14:10:45;2.53;;;1.40;;
21941;SDS011;11135;54.192;15.670;2023-12-14T14:14:14;4.13;;;1.55;;
21941;SDS011;11135;54.192;15.670;2023-12-14T14:17:41;2.78;;;1.30;;
21941;SDS011;11135;54.192;15.670;2023-12-14T14:21:07;4.03;;;1.70;;
21941;SDS011;11135;54.192;15.670;2023-12-14T14:24:33;3.65;;;1.40;;
21941;SDS011;11135;54.192;15.670;2023-12-14T14:27:58;3.53;;;1.67;;
21941;SDS011;11135;54.192;15.670;2023-12-14T14:31:28;4.43;;;1.58;;
21941;SDS011;11135;54.192;15.670;2023-12-14T14:34:55;4.35;;;1.77;;
21941;SDS011;11135;54.192;15.670;2023-12-14T14:38:24;3.35;;;1.02;;
21941;SDS011;11135;54.192;15.670;2023-12-14T14:41:49;2.83;;;1.00;;
21941;SDS011;11135;54.192;15.670;2023-12-14T14:45:16;2.95;;;1.13;;
21941;SDS011;11135;54.192;15.670;2023-12-14T14:48:44;2.10;;;1.10;;
21941;SDS011;11135;54.192;15.670;2023-12-14T14:52:11;3.15;;;1.40;;
21941;SDS011;11135;54.192;15.670;2023-12-14T14:55:37;3.67;;;1.35;;
21941;SDS011;11135;54.192;15.670;2023-12-14T14:59:04;2.00;;;1.10;;
21941;SDS011;11135;54.192;15.670;2023-12-14T15:02:29;3.47;;;1.38;;
21941;SDS011;11135;54.192;15.670;2023-12-14T15:06:01;2.28;;;1.10;;
21941;SDS011;11135;54.192;15.670;2023-12-14T15:09:27;4.15;;;1.30;;
21941;SDS011;11135;54.192;15.670;2023-12-14T15:12:53;3.40;;;1.15;;
21941;SDS011;11135;54.192;15.670;2023-12-14T15:16:18;1.75;;;1.05;;
21941;SDS011;11135;54.192;15.670;2023-12-14T15:19:50;3.45;;;1.20;;
21941;SDS011;11135;54.192;15.670;2023-12-14T15:23:19;1.50;;;0.90;;
21941;SDS011;11135;54.192;15.670;2023-12-14T15:26:47;4.63;;;1.48;;
21941;SDS011;11135;54.192;15.670;2023-12-14T15:30:14;2.13;;;1.08;;
21941;SDS011;11135;54.192;15.670;2023-12-14T15:33:39;2.97;;;1.00;;
21941;SDS011;11135;54.192;15.670;2023-12-14T15:37:07;3.13;;;1.02;;
21941;SDS011;11135;54.192;15.670;2023-12-14T15:40:35;1.67;;;1.00;;
21941;SDS011;11135;54.192;15.670;2023-12-14T15:44:03;2.92;;;0.90;;
21941;SDS011;11135;54.192;15.670;2023-12-14T15:47:29;1.15;;;0.80;;
21941;SDS011;11135;54.192;15.670;2023-12-14T15:50:55;2.75;;;1.10;;
21941;SDS011;11135;54.192;15.670;2023-12-14T15:54:21;2.13;;;0.90;;
21941;SDS011;11135;54.192;15.670;2023-12-14T15:57:51;1.40;;;1.05;;
21941;SDS011;11135;54.192;15.670;2023-12-14T16:01:18;2.42;;;1.20;;
21941;SDS011;11135;54.192;15.670;2023-12-14T16:04:45;2.28;;;1.20;;
21941;SDS011;11135;54.192;15.670;2023-12-14T16:08:11;2.08;;;1.23;;
21941;SDS011;11135;54.192;15.670;2023-12-14T16:11:39;4.45;;;1.17;;
21941;SDS011;11135;54.192;15.670;2023-12-14T16:15:09;6.68;;;1.20;;
21941;SDS011;11135;54.192;15.670;2023-12-14T16:19:19;3.72;;;1.40;;
21941;SDS011;11135;54.192;15.670;2023-12-14T16:22:45;2.47;;;1.48;;
21941;SDS011;11135;54.192;15.670;2023-12-14T16:26:12;2.50;;;1.20;;
21941;SDS011;11135;54.192;15.670;2023-12-14T16:29:39;3.95;;;1.50;;
21941;SDS011;11135;54.192;15.670;2023-12-14T16:33:07;1.67;;;1.10;;
21941;SDS011;11135;54.192;15.670;2023-12-14T16:36:34;1.83;;;1.33;;
21941;SDS011;11135;54.192;15.670;2023-12-14T16:40:00;3.63;;;1.77;;
21941;SDS011;11135;54.192;15.670;2023-12-14T16:43:28;4.28;;;2.35;;
21941;SDS011;11135;54.192;15.670;2023-12-14T16:46:55;3.88;;;1.50;;
21941;SDS011;11135;54.192;15.670;2023-12-14T16:50:24;3.40;;;1.58;;
21941;SDS011;11135;54.192;15.670;2023-12-14T16:53:54;4.30;;;1.50;;
21941;SDS011;11135;54.192;15.670;2023-12-14T16:57:25;3.47;;;1.77;;
21941;SDS011;11135;54.192;15.670;2023-12-14T17:00:51;3.60;;;1.73;;
21941;SDS011;11135;54.192;15.670;2023-12-14T17:04:18;6.20;;;2.00;;
21941;SDS011;11135;54.192;15.670;2023-12-14T17:07:46;6.60;;;2.20;;
21941;SDS011;11135;54.192;15.670;2023-12-14T17:11:13;4.82;;;2.60;;
21941;SDS011;11135;54.192;15.670;2023-12-14T17:14:46;5.20;;;2.78;;
21941;SDS011;11135;54.192;15.670;2023-12-14T17:18:13;5.65;;;2.42;;
21941;SDS011;11135;54.192;15.670;2023-12-14T17:21:39;6.80;;;2.10;;
21941;SDS011;11135;54.192;15.670;2023-12-14T17:25:10;5.93;;;1.90;;
21941;SDS011;11135;54.192;15.670;2023-12-14T17:28:35;3.22;;;2.00;;
21941;SDS011;11135;54.192;15.670;2023-12-14T17:32:04;4.93;;;2.10;;
21941;SDS011;11135;54.192;15.670;2023-12-14T17:35:31;4.13;;;2.17;;
21941;SDS011;11135;54.192;15.670;2023-12-14T17:38:58;3.60;;;1.23;;
21941;SDS011;11135;54.192;15.670;2023-12-14T17:42:29;4.05;;;1.35;;
21941;SDS011;11135;54.192;15.670;2023-12-14T17:45:56;1.85;;;1.00;;
21941;SDS011;11135;54.192;15.670;2023-12-14T17:49:21;2.08;;;0.85;;
21941;SDS011;11135;54.192;15.670;2023-12-14T17:52:48;1.67;;;0.90;;
21941;SDS011;11135;54.192;15.670;2023-12-14T17:56:15;2.03;;;0.85;;
21941;SDS011;11135;54.192;15.670;2023-12-14T17:59:46;2.30;;;1.20;;
21941;SDS011;11135;54.192;15.670;2023-12-14T18:03:12;4.40;;;1.40;;
21941;SDS011;11135;54.192;15.670;2023-12-14T18:06:42;2.55;;;1.40;;
21941;SDS011;11135;54.192;15.670;2023-12-14T18:10:09;1.92;;;1.20;;
21941;SDS011;11135;54.192;15.670;2023-12-14T18:13:36;1.73;;;1.13;;
21941;SDS011;11135;54.192;15.670;2023-12-14T18:17:05;1.92;;;1.10;;
21941;SDS011;11135;54.192;15.670;2023-12-14T18:20:31;2.15;;;1.33;;
21941;SDS011;11135;54.192;15.670;2023-12-14T18:23:58;2.17;;;1.25;;
21941;SDS011;11135;54.192;15.670;2023-12-14T18:27:25;3.35;;;1.40;;
21941;SDS011;11135;54.192;15.670;2023-12-14T18:30:54;1.33;;;1.02;;
21941;SDS011;11135;54.192;15.670;2023-12-14T18:34:25;4.20;;;1.20;;
21941;SDS011;11135;54.192;15.670;2023-12-14T18:37:50;2.45;;;1.20;;
21941;SDS011;11135;54.192;15.670;2023-12-14T18:41:19;2.72;;;1.10;;
21941;SDS011;11135;54.192;15.670;2023-12-14T18:44:49;4.88;;;1.38;;
21941;SDS011;11135;54.192;15.670;2023-12-14T18:48:18;2.50;;;1.40;;
21941;SDS011;11135;54.192;15.670;2023-12-14T18:51:49;3.03;;;1.30;;
21941;SDS011;11135;54.192;15.670;2023-12-14T18:55:16;1.88;;;0.82;;
21941;SDS011;11135;54.192;15.670;2023-12-14T18:58:42;3.58;;;1.60;;
21941;SDS011;11135;54.192;15.670;2023-12-14T19:02:08;3.08;;;1.27;;
21941;SDS011;11135;54.192;15.670;2023-12-14T19:05:33;3.15;;;1.60;;
21941;SDS011;11135;54.192;15.670;2023-12-14T19:09:03;29.90;;;12.38;;
21941;SDS011;11135;54.192;15.670;2023-12-14T19:12:28;63.05;;;23.35;;
21941;SDS011;11135;54.192;15.670;2023-12-14T19:15:54;54.30;;;20.08;;
21941;SDS011;11135;54.192;15.670;2023-12-14T19:19:20;35.30;;;14.75;;
21941;SDS011;11135;54.192;15.670;2023-12-14T19:22:50;53.97;;;18.15;;
21941;SDS011;11135;54.192;15.670;2023-12-14T19:26:18;40.15;;;17.83;;
21941;SDS011;11135;54.192;15.670;2023-12-14T19:29:45;45.33;;;17.67;;
21941;SDS011;11135;54.192;15.670;2023-12-14T19:33:11;27.55;;;11.07;;
21941;SDS011;11135;54.192;15.670;2023-12-14T19:36:37;14.52;;;6.32;;
21941;SDS011;11135;54.192;15.670;2023-12-14T19:40:06;10.90;;;4.32;;
21941;SDS011;11135;54.192;15.670;2023-12-14T19:43:35;8.15;;;3.50;;
21941;SDS011;11135;54.192;15.670;2023-12-14T19:47:00;6.72;;;2.50;;
21941;SDS011;11135;54.192;15.670;2023-12-14T19:50:28;6.93;;;2.40;;
21941;SDS011;11135;54.192;15.670;2023-12-14T19:53:54;4.40;;;2.20;;
21941;SDS011;11135;54.192;15.670;2023-12-14T19:57:20;3.83;;;1.95;;
21941;SDS011;11135;54.192;15.670;2023-12-14T20:00:48;3.33;;;1.80;;
21941;SDS011;11135;54.192;15.670;2023-12-14T20:04:14;5.18;;;2.53;;
21941;SDS011;11135;54.192;15.670;2023-12-14T20:07:40;6.45;;;2.13;;
21941;SDS011;11135;54.192;15.670;2023-12-14T20:11:14;6.45;;;2.78;;
21941;SDS011;11135;54.192;15.670;2023-12-14T20:14:40;4.82;;;2.65;;
21941;SDS011;11135;54.192;15.670;2023-12-14T20:18:11;7.43;;;2.28;;
21941;SDS011;11135;54.192;15.670;2023-12-14T20:21:37;4.20;;;1.65;;
21941;SDS011;11135;54.192;15.670;2023-12-14T20:25:04;4.43;;;1.60;;
21941;SDS011;11135;54.192;15.670;2023-12-14T20:28:32;3.60;;;1.80;;